Terminal Aerodrome Forecast
Issued by NWS Sioux Falls, SD

Home | Current Version | Previous Version | Text Only | Print | Product List | Glossary Off
Versions: 1 2 3 4 5 6 7 8 9 10 11 12 13 14 15 16 17

650
FTUS43 KFSD 151731 AAA
TAFHON
TAF AMD
KHON 151731Z 1518/1618 14010KT P6SM BKN025
     FM160030 11008KT P6SM SHRA VCTS BKN035 OVC070CB
     FM160900 33004KT P6SM OVC015
     FM161600 34008KT P6SM OVC010=

USA.gov is the U.S. government's official web portal to all federal, state and local government web resources and services.